Terminal Aerodrome Forecast
Issued by NWS Wichita, KS

Home | Current Version | Previous Version | Graphics & Text | Print | Product List | Glossary On
Versions: 1 2 3 4 5 6 7 8 9 10 11 12 13 14 15 16 17 18 19 20 21 22 23 24 25 26 27 28 29 30 31
000
FTUS43 KICT 281028 AAA
TAFICT
TAF AMD
KICT 281028Z 2810/0106 14007KT P6SM -SN SCT025 BKN035
     FM281100 14010KT 5SM -SN OVC025
      TEMPO 2811/2814 2SM -SN BR OVC009
     FM281500 15009KT 6SM -SN OVC020
     FM010300 13006KT 2SM -SN BKN004=

USA.gov is the U.S. government's official web portal to all federal, state and local government web resources and services.